KRAP/RAP METAR and TAF weather

Enter ICAO airport designator
Station Type Date Time Source
KRAP METAR 2024/06/14 02:52 UTC NOAA

KRAP 140252Z 08009KT 10SM CLR 19/08 A3007 RMK AO2 SLP159 T01890078 55000


Station Type Date Time Source
KRAP Decoded METAR 2024/06/14 02:52 UTC NOAA

RAPID CITY REGIONAL AIRPORT , SD, United States (KRAP) 44-03N 103-03W 965M
Jun 13, 2024 - 10:52 PM EDT / 2024.06.14 0252 UTC
Wind: from the E (080 degrees) at 10 MPH (9 KT):0
Visibility: 10 mile(s):0
Sky conditions: clear
Temperature: 66.0 F (18.9 C)
Dew Point: 46.0 F (7.8 C)
Relative Humidity: 48%
Pressure (altimeter): 30.07 in. Hg (1018 hPa)
Pressure tendency: 0.00 inches (0.0 hPa) lower than three hours ago
ob: KRAP 140252Z 08009KT 10SM CLR 19/08 A3007 RMK AO2 SLP159 T01890078 55000
cycle: 3

Station Type Date Time Source
KRAP TAF 2024/06/13 18:22 UTC NOAA